Huvudsida
METAR-TAF:

METAR-TAF

Flygplatser :

Hanoi, Vietnam

Noi Bai internationella flygplats

latitud: 21-01N, longitud: 105-48E, höjd: 6 m

Aktuellt väderrapport

Denna rapport gjordes för 39 minuter sedan, klockan 21:30 UTC
Vind 7 kt från ost/sydost
Temperatur 25°C
Fuktighet 94%
Tryck 1005 hPa
Sikt: 5000 m
Brutna moln på en höjd av 700 ft
fuktdis

METAR: VVNB 222130Z 12007KT 5000 BR BKN007 25/24 Q1005 NOSIG

Tid: 05:09 (22:09 UTC)

Väderprognos

Denna rapport gjordes för 5 timmar och 9 minuter sedan, klockan 17:00 UTC
Prognos gäller från 22 kl. 18 UTC till 23 kl. 18 UTC
Vind 6 kt från ost/sydost
Sikt: 6000 m
Brutna moln på en höjd av 1200 ft
Blir
från 22 kl. 21 UTC till 22 kl. 22 UTC
Sikt: 4000 m
fuktdis
Blir
från 23 kl. 01 UTC till 23 kl. 02 UTC
Sikt: 6000 m

TAF: VVNB 221700Z 2218/2318 12006KT 6000 BKN012 BECMG 2221/2222 4000 BR BECMG 2301/2302 6000 NSW

Aktuella väderrapporter och prognoser från 4000 flygplatser (METAR- och TAF-rapporter).

De tillgängliga stationerna syns som gula och röda prickar på kartan.

För musen över prickarna för att se namnen på stationerna.

Klicka sedan för att få väderrapporter och prognoser.

För att ändra kartan: Klicka på de gröna knapparna med ett svart kors på för att zooma in; den gröna knappen med ett streck på för att zooma ut; eller på de gröna pilarna för angränsande kartor.


METAR-TAF: